CheckWX is a tool to help pilots better visualize weather data.  It is not intended as a substitute for an official pre-flight weather briefing.

15:05:55 UTC

KMCD METAR
Mackinac Island Airport
Mackinac Island, Michigan, USA
Current

11 mins ago

KMCD 231455Z AUTO 24007G16KT 10SM BKN002 BKN060 09/09 A2977 RMK AO2 T00930093
Observed
May-23 @ 14:55 UTC
Wind
  • 240° at 7 KTS
  • Gusting to 16 KTS
Visibility
10 SM
Flight Rules
LIFR
Cloud Levels
  • Broken at 200' AGL
  • Broken at 6,000' AGL
Temperature
C / 48°F
Dewpoint
C / 48°F
Humidity
100%
Altimeter
29.77" Hg
Pressure
1008.12 hPa
Previous

30 mins ago

KMCD 231436Z AUTO 25007KT 10SM BKN002 BKN018 BKN033 09/09 A2977 RMK AO2 T00900090
Observed
May-23 @ 14:36 UTC
Wind
  • 250° at 7 KTS
Visibility
10 SM
Flight Rules
LIFR
Cloud Levels
  • Broken at 200' AGL
  • Broken at 1,800' AGL
  • Broken at 3,300' AGL
Temperature
C / 48°F
Dewpoint
C / 48°F
Humidity
100%
Altimeter
29.77" Hg
Pressure
1008.12 hPa
Previous

51 mins ago

KMCD 231415Z AUTO 25010KT 1 3/4SM BR OVC002 08/08 A2977 RMK AO2 T00810081
Observed
May-23 @ 14:15 UTC
Wind
  • 250° at 10 KTS
Visibility
1 3/4 SM
Flight Rules
LIFR
Conditions
Mist
Cloud Levels
  • Overcast at 200' AGL
Temperature
C / 46°F
Dewpoint
C / 46°F
Humidity
100%
Altimeter
29.77" Hg
Pressure
1008.12 hPa